Time;durP1;ratioP1;P1;durP2;ratioP2;P2;SDS_P1;SDS_P2;PMS_P1;PMS_P2;Temp;Humidity;BMP_temperature;BMP_pressure;BME280_temperature;BME280_humidity;BME280_pressure;Samples;Min_cycle;Max_cycle;Signal;HPM_P1;HPM_P2
2023/04/01 00:01:08;;;;;;;3.30;1.00;;;14.40;57.40;;;;;;5078638;28;20910;-90
2023/04/01 00:03:36;;;;;;;1.37;1.10;;;14.30;57.70;;;;;;5050094;28;20485;-89
2023/04/01 00:06:04;;;;;;;1.73;0.90;;;14.20;57.70;;;;;;5051422;28;20463;-90
2023/04/01 00:08:31;;;;;;;2.23;0.90;;;14.10;57.80;;;;;;5092536;28;20964;-90
2023/04/01 00:10:59;;;;;;;1.37;1.10;;;14.10;57.40;;;;;;5083244;28;20828;-90
2023/04/01 00:13:27;;;;;;;7.37;1.10;;;14.00;57.70;;;;;;5052890;28;20474;-90
2023/04/01 00:15:56;;;;;;;1.30;1.13;;;14.00;58.20;;;;;;5083000;28;21109;-91
2023/04/01 00:18:24;;;;;;;2.30;1.20;;;14.10;57.60;;;;;;5058392;28;21069;-90
2023/04/01 00:20:52;;;;;;;3.07;1.10;;;13.90;57.60;;;;;;5044085;28;20519;-90
2023/04/01 00:23:20;;;;;;;2.53;1.20;;;14.00;58.00;;;;;;5091165;28;20471;-90
2023/04/01 00:25:47;;;;;;;2.50;0.90;;;14.10;58.00;;;;;;5058765;28;20440;-90
2023/04/01 00:28:16;;;;;;;5.13;1.10;;;14.20;57.40;;;;;;5094612;28;20468;-92
2023/04/01 00:30:43;;;;;;;1.77;1.10;;;14.30;56.70;;;;;;5050744;28;20528;-89
2023/04/01 00:33:12;;;;;;;5.17;1.10;;;14.30;57.30;;;;;;5052655;28;20461;-90
2023/04/01 00:35:39;;;;;;;3.83;1.80;;;14.30;57.20;;;;;;5043355;28;20439;-90
2023/04/01 00:38:07;;;;;;;2.53;1.13;;;14.20;57.30;;;;;;5083568;28;20474;-90
2023/04/01 00:40:36;;;;;;;5.87;1.40;;;14.00;58.50;;;;;;5055294;28;20504;-90
2023/04/01 00:43:04;;;;;;;4.13;1.10;;;14.10;58.10;;;;;;5046162;28;20842;-90
2023/04/01 00:45:36;;;;;;;4.40;1.20;;;14.00;58.10;;;;;;5087990;28;20447;-91
2023/04/01 00:48:06;;;;;;;2.40;1.30;;;14.00;57.60;;;;;;5071507;28;20534;-89
2023/04/01 00:50:36;;;;;;;2.17;1.10;;;14.10;57.50;;;;;;5095496;28;20451;-90
2023/04/01 00:53:04;;;;;;;2.10;1.10;;;14.00;57.80;;;;;;5050627;28;21423;-91
2023/04/01 00:55:35;;;;;;;0.97;0.87;;;13.90;58.00;;;;;;5096279;27;20859;-91
2023/04/01 00:58:08;;;;;;;5.10;1.10;;;13.50;57.90;;;;;;5051676;28;20471;-90
2023/04/01 01:00:36;;;;;;;3.20;1.80;;;13.60;58.80;;;;;;5047940;28;20447;-90
2023/04/01 01:03:03;;;;;;;4.50;1.10;;;13.80;58.80;;;;;;5053355;28;20893;-90
2023/04/01 01:05:43;;;;;;;5.20;1.20;;;13.80;57.90;;;;;;5097109;28;20519;-90
2023/04/01 01:08:21;;;;;;;3.13;1.30;;;13.90;58.60;;;;;;5070210;28;20475;-90
2023/04/01 01:10:50;;;;;;;7.93;1.67;;;14.00;58.20;;;;;;5079831;28;20464;-91
2023/04/01 01:13:25;;;;;;;1.30;1.20;;;14.00;57.80;;;;;;5077347;28;20439;-89
2023/04/01 01:15:57;;;;;;;1.83;1.20;;;14.00;57.60;;;;;;5069301;28;20455;-89
2023/04/01 01:18:32;;;;;;;5.60;1.70;;;14.10;57.30;;;;;;5052439;28;20491;-92
2023/04/01 01:21:46;;;;;;;4.70;1.10;;;14.00;56.50;;;;;;5052632;28;20800;-90
2023/04/01 01:24:28;;;;;;;5.63;1.50;;;14.00;56.90;;;;;;5028829;28;20482;-89
2023/04/01 01:27:01;;;;;;;1.30;0.90;;;13.80;57.40;;;;;;5073814;28;20478;-89
2023/04/01 01:29:56;;;;;;;3.40;1.27;;;13.90;57.70;;;;;;5063056;28;20468;-91
2023/04/01 01:33:05;;;;;;;3.20;1.73;;;13.90;57.20;;;;;;5050562;27;20550;-90
2023/04/01 01:35:36;;;;;;;3.20;1.03;;;13.70;57.70;;;;;;5046651;28;20820;-90
2023/04/01 01:38:12;;;;;;;1.93;0.80;;;13.90;58.00;;;;;;5091335;28;20463;-91
2023/04/01 01:40:44;;;;;;;2.43;0.93;;;14.00;56.90;;;;;;5075721;28;20447;-90
2023/04/01 01:43:14;;;;;;;2.60;1.27;;;13.80;57.20;;;;;;5061957;28;20456;-93
2023/04/01 01:45:46;;;;;;;7.20;1.37;;;13.90;57.30;;;;;;5062252;28;20455;-89
2023/04/01 01:48:15;;;;;;;5.40;1.00;;;13.90;56.90;;;;;;5078920;28;20540;-92
2023/04/01 01:50:45;;;;;;;1.27;0.90;;;13.70;57.20;;;;;;5085727;27;20464;-90
2023/04/01 01:53:14;;;;;;;0.80;0.70;;;13.70;57.40;;;;;;5105332;27;20468;-90
2023/04/01 01:55:44;;;;;;;1.77;0.97;;;14.00;57.50;;;;;;5065167;28;20730;-90
2023/04/01 01:58:14;;;;;;;1.40;1.00;;;13.90;58.20;;;;;;5057839;28;20490;-89
2023/04/01 02:00:47;;;;;;;4.07;1.17;;;14.10;57.20;;;;;;5070780;28;20469;-91
2023/04/01 02:03:16;;;;;;;1.77;0.77;;;13.90;57.00;;;;;;5068597;28;20475;-90
2023/04/01 02:05:45;;;;;;;3.33;1.00;;;13.90;57.00;;;;;;5071531;28;20449;-90
2023/04/01 02:08:17;;;;;;;1.50;1.00;;;14.10;57.20;;;;;;5048581;28;20470;-90
2023/04/01 02:10:50;;;;;;;9.97;1.33;;;14.10;56.90;;;;;;5055693;28;20455;-91
2023/04/01 02:13:27;;;;;;;3.10;1.07;;;14.20;55.90;;;;;;5060460;28;20517;-91
2023/04/01 02:16:00;;;;;;;3.00;1.07;;;14.00;56.70;;;;;;5062969;28;20549;-90
2023/04/01 02:18:28;;;;;;;4.03;1.40;;;14.20;56.40;;;;;;5076828;28;20464;-92
2023/04/01 02:20:59;;;;;;;1.43;0.70;;;14.30;56.40;;;;;;5056493;28;20682;-94
2023/04/01 02:23:28;;;;;;;4.00;1.17;;;14.40;56.30;;;;;;5076756;28;20554;-92
2023/04/01 02:25:55;;;;;;;1.30;1.00;;;14.40;56.20;;;;;;5050624;28;20535;-90
2023/04/01 02:28:24;;;;;;;4.43;1.10;;;14.40;56.10;;;;;;5081129;28;20539;-89
2023/04/01 02:30:52;;;;;;;1.43;0.97;;;14.30;55.90;;;;;;5097165;28;20889;-90
2023/04/01 02:33:21;;;;;;;4.67;1.50;;;14.00;56.40;;;;;;5083238;28;20444;-91
2023/04/01 02:35:48;;;;;;;4.23;1.20;;;14.00;55.90;;;;;;5074041;28;20452;-90
2023/04/01 02:38:17;;;;;;;3.70;1.23;;;14.10;56.20;;;;;;5083115;28;20470;-89
2023/04/01 02:40:48;;;;;;;4.07;1.20;;;14.10;56.10;;;;;;5087575;28;20464;-92
2023/04/01 02:43:16;;;;;;;2.27;1.00;;;14.20;55.60;;;;;;5094848;27;20466;-91
2023/04/01 02:45:43;;;;;;;1.10;0.90;;;14.20;55.90;;;;;;5052904;28;20474;-89
2023/04/01 02:48:10;;;;;;;1.83;1.00;;;14.30;55.70;;;;;;5076163;28;20838;-90
2023/04/01 02:50:37;;;;;;;6.10;1.70;;;14.40;55.70;;;;;;5068358;28;21003;-89
2023/04/01 02:53:06;;;;;;;2.60;0.93;;;14.30;54.80;;;;;;5081181;28;20447;-90
2023/04/01 02:55:34;;;;;;;2.90;1.13;;;14.40;55.70;;;;;;5045156;28;20450;-90
2023/04/01 02:58:02;;;;;;;1.40;0.77;;;14.40;56.00;;;;;;5071516;28;20527;-90
2023/04/01 03:00:30;;;;;;;2.87;1.10;;;14.10;55.80;;;;;;5046396;28;20444;-90
2023/04/01 03:02:57;;;;;;;1.90;1.50;;;14.10;55.80;;;;;;5047001;28;20540;-90
2023/04/01 03:05:25;;;;;;;1.10;1.00;;;14.00;55.80;;;;;;5081971;28;21000;-92
2023/04/01 03:07:52;;;;;;;1.87;0.90;;;13.90;56.30;;;;;;5067374;28;20463;-89
2023/04/01 03:10:19;;;;;;;1.33;1.03;;;13.90;56.60;;;;;;5097132;28;20522;-90
2023/04/01 03:12:48;;;;;;;1.87;0.80;;;14.00;56.20;;;;;;5076238;28;20536;-89
2023/04/01 03:15:15;;;;;;;3.70;0.90;;;14.00;56.20;;;;;;5086763;28;20450;-90
2023/04/01 03:17:43;;;;;;;1.40;0.90;;;14.10;56.10;;;;;;5065826;28;20844;-89
2023/04/01 03:20:11;;;;;;;1.83;1.10;;;14.00;55.90;;;;;;5050227;28;20761;-89
2023/04/01 03:22:39;;;;;;;3.67;1.70;;;14.00;56.40;;;;;;5078264;28;20542;-92
2023/04/01 03:25:07;;;;;;;3.73;1.10;;;13.70;55.90;;;;;;5093931;28;20797;-90
2023/04/01 03:27:35;;;;;;;1.97;1.03;;;13.80;56.40;;;;;;5069765;28;20478;-90
2023/04/01 03:30:04;;;;;;;4.03;1.20;;;13.80;56.70;;;;;;5061905;28;20893;-89
2023/04/01 03:32:35;;;;;;;1.70;0.90;;;13.80;56.50;;;;;;5073186;28;20838;-91
2023/04/01 03:35:02;;;;;;;3.63;1.20;;;14.00;56.60;;;;;;5077772;28;20951;-90
2023/04/01 03:37:29;;;;;;;5.57;2.20;;;14.00;56.10;;;;;;5051233;28;20820;-90
2023/04/01 03:39:56;;;;;;;2.20;0.90;;;13.90;56.40;;;;;;5051435;28;20653;-88
2023/04/01 03:42:23;;;;;;;4.07;1.30;;;13.80;56.30;;;;;;5050132;28;20979;-90
2023/04/01 03:44:50;;;;;;;1.63;1.20;;;14.00;57.00;;;;;;5076777;28;20459;-91
2023/04/01 03:47:19;;;;;;;5.60;1.27;;;13.90;56.20;;;;;;5087673;28;20870;-89
2023/04/01 03:49:45;;;;;;;1.70;0.90;;;13.60;56.90;;;;;;5041259;28;20512;-92
2023/04/01 03:52:13;;;;;;;1.73;1.23;;;13.70;56.90;;;;;;5042861;28;20452;-91
2023/04/01 03:54:40;;;;;;;1.87;1.20;;;13.90;56.40;;;;;;5101247;28;20476;-90
2023/04/01 03:57:07;;;;;;;3.37;0.83;;;14.00;56.70;;;;;;5060783;28;20466;-89
2023/04/01 03:59:36;;;;;;;1.70;1.10;;;14.00;56.20;;;;;;5052082;28;20455;-90
2023/04/01 04:02:03;;;;;;;1.20;0.90;;;13.90;56.90;;;;;;5051053;28;20617;-91
2023/04/01 04:04:32;;;;;;;2.17;1.20;;;13.90;56.60;;;;;;5095726;28;20524;-90
2023/04/01 04:06:59;;;;;;;2.20;1.00;;;14.00;56.70;;;;;;5048709;28;20455;-90
2023/04/01 04:09:27;;;;;;;2.03;1.00;;;14.00;56.60;;;;;;5051754;28;20469;-91
2023/04/01 04:11:54;;;;;;;7.17;1.27;;;14.10;56.70;;;;;;5066758;28;20509;-93
2023/04/01 04:14:21;;;;;;;0.70;0.60;;;14.00;56.70;;;;;;5073518;28;20705;-92
2023/04/01 04:16:49;;;;;;;2.87;0.93;;;14.00;56.60;;;;;;5083293;27;20445;-92
2023/04/01 04:19:16;;;;;;;0.80;0.77;;;14.00;56.30;;;;;;5045781;28;20490;-92
2023/04/01 04:21:45;;;;;;;5.60;1.37;;;14.00;55.80;;;;;;5094259;28;20469;-90
2023/04/01 04:24:13;;;;;;;7.23;0.90;;;14.10;55.00;;;;;;5080520;28;20570;-91
2023/04/01 04:26:58;;;;;;;1.00;0.80;;;14.00;55.50;;;;;;5052540;28;20447;-89
2023/04/01 04:29:25;;;;;;;2.53;1.07;;;13.70;56.70;;;;;;5083527;28;20531;-91
2023/04/01 04:31:53;;;;;;;1.80;0.90;;;13.70;56.80;;;;;;5070919;27;20463;-89
2023/04/01 04:34:22;;;;;;;2.73;0.80;;;13.90;56.30;;;;;;5080550;28;20501;-89
2023/04/01 04:36:50;;;;;;;3.33;1.37;;;13.80;55.90;;;;;;5058725;27;21849;-90
2023/04/01 04:39:18;;;;;;;6.73;1.20;;;13.90;56.30;;;;;;5070478;28;20471;-90
2023/04/01 04:41:46;;;;;;;0.93;0.70;;;13.90;56.00;;;;;;5068267;28;20509;-90
2023/04/01 04:44:13;;;;;;;2.67;1.10;;;13.70;56.10;;;;;;5109722;27;20477;-90
2023/04/01 04:46:40;;;;;;;2.37;0.70;;;13.70;56.60;;;;;;5058171;27;20525;-89
2023/04/01 04:49:14;;;;;;;2.80;0.80;;;13.60;56.20;;;;;;5062415;28;20479;-90
2023/04/01 04:51:41;;;;;;;2.07;0.90;;;13.40;56.00;;;;;;5055876;28;20500;-90
2023/04/01 04:54:11;;;;;;;3.10;0.90;;;13.40;56.40;;;;;;5052690;28;21242;-91
2023/04/01 04:56:48;;;;;;;2.10;1.57;;;13.60;56.80;;;;;;5080824;27;20518;-90
2023/04/01 04:59:15;;;;;;;2.40;0.90;;;13.80;56.80;;;;;;5056538;28;21070;-92
2023/04/01 05:01:49;;;;;;;2.13;1.10;;;14.00;56.10;;;;;;5083704;28;20813;-90
2023/04/01 05:04:16;;;;;;;5.00;1.13;;;13.90;56.40;;;;;;5065803;28;20462;-88
2023/04/01 05:06:44;;;;;;;1.87;0.90;;;13.70;56.90;;;;;;5048360;27;21113;-90
2023/04/01 05:09:13;;;;;;;1.80;1.37;;;13.70;57.40;;;;;;5079292;28;20828;-91
2023/04/01 05:11:40;;;;;;;3.60;1.10;;;13.70;56.90;;;;;;5051561;28;20451;-90
2023/04/01 05:14:12;;;;;;;1.20;1.10;;;13.70;57.20;;;;;;5099197;27;20443;-90
2023/04/01 05:16:39;;;;;;;3.10;1.60;;;13.70;57.70;;;;;;5055404;28;20573;-90
2023/04/01 05:19:06;;;;;;;7.90;1.37;;;13.70;57.20;;;;;;5055297;28;20499;-90
2023/04/01 05:21:33;;;;;;;4.57;1.00;;;13.70;57.30;;;;;;5054665;28;20450;-90
2023/04/01 05:24:01;;;;;;;1.10;0.93;;;13.50;57.50;;;;;;5086373;28;20462;-90
2023/04/01 05:26:33;;;;;;;1.13;1.00;;;13.30;58.60;;;;;;5052567;28;20446;-90
2023/04/01 05:28:59;;;;;;;2.67;1.20;;;13.40;57.80;;;;;;5059887;28;20574;-90
2023/04/01 05:31:26;;;;;;;2.80;1.27;;;13.10;58.60;;;;;;5053408;28;20447;-89
2023/04/01 05:33:54;;;;;;;1.20;1.10;;;13.40;58.70;;;;;;5090162;27;20434;-92
2023/04/01 05:36:21;;;;;;;1.43;1.30;;;13.60;58.60;;;;;;5057732;28;20455;-89
2023/04/01 05:38:48;;;;;;;2.93;1.20;;;13.70;57.80;;;;;;5085017;28;20462;-91
2023/04/01 05:41:17;;;;;;;3.63;1.00;;;13.40;58.10;;;;;;5087188;28;21025;-89
2023/04/01 05:43:47;;;;;;;1.10;1.00;;;13.60;58.00;;;;;;5054224;27;20447;-89
2023/04/01 05:46:33;;;;;;;3.90;1.30;;;13.60;58.20;;;;;;5103063;28;20874;-92
2023/04/01 05:49:09;;;;;;;1.60;1.10;;;13.90;57.80;;;;;;5070426;28;20472;-91
2023/04/01 05:51:36;;;;;;;1.43;0.90;;;13.90;57.30;;;;;;5046158;28;20443;-93
2023/04/01 05:54:05;;;;;;;2.37;1.23;;;13.90;56.70;;;;;;5074362;28;20443;-90
2023/04/01 05:56:32;;;;;;;3.07;1.20;;;14.00;57.30;;;;;;5088512;28;20442;-93
2023/04/01 05:59:01;;;;;;;2.17;1.20;;;14.20;57.60;;;;;;5113135;27;20470;-90
2023/04/01 06:01:28;;;;;;;1.53;1.43;;;14.10;56.90;;;;;;5056413;28;20638;-91
2023/04/01 06:03:55;;;;;;;2.33;1.70;;;14.10;57.40;;;;;;5050437;28;20506;-91
2023/04/01 06:06:25;;;;;;;4.10;1.60;;;14.10;56.90;;;;;;5083873;28;20749;-89
2023/04/01 06:08:58;;;;;;;2.57;1.63;;;14.00;56.80;;;;;;5062905;27;20471;-91
2023/04/01 06:11:34;;;;;;;1.93;1.50;;;14.00;57.20;;;;;;5066393;28;20860;-89
2023/04/01 06:14:11;;;;;;;1.10;1.00;;;13.90;57.30;;;;;;5078597;28;20446;-90
2023/04/01 06:16:56;;;;;;;5.53;1.77;;;13.90;57.50;;;;;;5083202;28;20495;-89
2023/04/01 06:19:33;;;;;;;1.57;1.27;;;13.80;57.40;;;;;;5080143;28;20539;-90
2023/04/01 06:22:56;;;;;;;2.00;1.10;;;13.70;58.40;;;;;;5050800;28;21252;-92
2023/04/01 06:25:39;;;;;;;1.83;1.00;;;13.70;58.30;;;;;;5029394;28;20489;-91
2023/04/01 06:28:35;;;;;;;3.33;1.30;;;13.70;57.60;;;;;;5102606;28;20972;-92
2023/04/01 06:31:11;;;;;;;1.43;1.20;;;13.60;58.10;;;;;;5040155;28;20522;-89
2023/04/01 06:33:53;;;;;;;1.50;0.90;;;13.80;58.50;;;;;;5100409;28;20451;-89
2023/04/01 06:36:41;;;;;;;3.50;1.33;;;13.80;58.70;;;;;;5049306;28;20512;-91
2023/04/01 06:39:30;;;;;;;4.13;2.00;;;13.90;58.10;;;;;;5075961;28;20845;-90
2023/04/01 06:42:16;;;;;;;1.90;1.30;;;14.00;58.20;;;;;;5045744;27;20462;-90
2023/04/01 06:44:50;;;;;;;7.30;1.37;;;14.20;58.10;;;;;;5051320;28;20923;-90
2023/04/01 06:47:52;;;;;;;1.27;0.90;;;14.20;58.00;;;;;;5068556;28;20473;-91
2023/04/01 06:50:45;;;;;;;1.60;1.20;;;14.30;57.90;;;;;;5086753;28;20435;-89
2023/04/01 06:53:51;;;;;;;1.93;1.00;;;14.00;57.20;;;;;;5023542;28;20896;-90
2023/04/01 06:56:41;;;;;;;2.20;1.10;;;14.00;57.90;;;;;;5085270;28;20463;-90
2023/04/01 06:59:18;;;;;;;3.40;1.03;;;14.10;58.50;;;;;;5094749;27;20468;-91
2023/04/01 07:01:50;;;;;;;1.17;1.07;;;14.00;58.40;;;;;;5084910;28;20467;-91
2023/04/01 07:04:24;;;;;;;5.67;1.13;;;13.90;58.70;;;;;;5068040;28;20500;-89
2023/04/01 07:06:54;;;;;;;89.97;40.10;;;14.00;59.10;;;;;;5036964;28;20447;-90
2023/04/01 07:09:26;;;;;;;5.47;3.03;;;14.10;57.80;;;;;;5050769;28;20545;-90
2023/04/01 07:12:30;;;;;;;4.23;2.93;;;14.00;58.30;;;;;;5003005;28;20517;-90
2023/04/01 07:15:21;;;;;;;2.67;2.53;;;14.00;57.90;;;;;;5055240;28;20441;-89
2023/04/01 07:17:53;;;;;;;1.70;1.30;;;13.90;59.00;;;;;;5071668;28;20889;-89
2023/04/01 07:20:27;;;;;;;3.90;2.17;;;14.00;59.00;;;;;;5071743;28;20512;-90
2023/04/01 07:22:57;;;;;;;1.47;1.37;;;14.10;58.80;;;;;;5071451;28;20450;-90
2023/04/01 07:25:35;;;;;;;2.43;1.53;;;14.10;58.70;;;;;;5053535;28;21220;-89
2023/04/01 07:28:22;;;;;;;3.47;1.10;;;14.40;58.60;;;;;;5046650;28;20482;-91
2023/04/01 07:31:11;;;;;;;3.23;2.50;;;14.30;59.10;;;;;;5077956;28;20519;-91
2023/04/01 07:33:43;;;;;;;2.70;1.10;;;14.40;58.00;;;;;;5061704;28;20453;-91
2023/04/01 07:36:19;;;;;;;1.30;1.00;;;14.30;58.10;;;;;;5073129;28;20870;-90
2023/04/01 07:38:59;;;;;;;1.50;1.20;;;14.30;58.40;;;;;;5088020;28;20534;-90
2023/04/01 07:41:52;;;;;;;1.40;1.30;;;14.40;58.60;;;;;;5070648;28;20455;-90
2023/04/01 07:44:26;;;;;;;2.40;1.67;;;14.30;58.40;;;;;;5045896;28;20478;-89
2023/04/01 07:47:02;;;;;;;2.80;1.73;;;14.30;59.60;;;;;;5092559;28;20451;-90
2023/04/01 07:49:34;;;;;;;2.13;1.23;;;14.20;59.60;;;;;;5085753;28;20602;-90
2023/04/01 07:52:09;;;;;;;1.30;1.03;;;14.10;59.70;;;;;;5060055;28;20443;-91
2023/04/01 07:54:47;;;;;;;3.60;1.30;;;14.00;60.00;;;;;;5050104;28;20515;-90
2023/04/01 07:57:21;;;;;;;1.57;1.47;;;14.00;60.00;;;;;;5062485;28;20520;-91
2023/04/01 08:00:02;;;;;;;5.57;2.30;;;14.10;60.60;;;;;;5052882;28;20953;-89
2023/04/01 08:03:04;;;;;;;3.60;1.20;;;14.10;61.40;;;;;;5079510;27;20454;-90
2023/04/01 08:05:41;;;;;;;3.33;1.20;;;14.10;61.10;;;;;;5064622;28;20468;-90
2023/04/01 08:08:17;;;;;;;4.73;1.50;;;14.30;61.80;;;;;;5063547;28;20458;-91
2023/04/01 08:11:12;;;;;;;1.63;1.30;;;14.20;60.90;;;;;;5061764;28;20438;-92
2023/04/01 08:14:09;;;;;;;1.27;1.17;;;14.20;61.80;;;;;;5061630;28;20432;-89
2023/04/01 08:16:47;;;;;;;1.57;1.47;;;14.20;62.20;;;;;;5069869;28;20446;-90
2023/04/01 08:19:30;;;;;;;2.00;1.10;;;14.20;61.70;;;;;;5049312;28;20473;-92
2023/04/01 08:22:04;;;;;;;2.03;1.83;;;13.90;60.60;;;;;;5084994;28;21678;-93
2023/04/01 08:24:38;;;;;;;1.57;1.47;;;13.90;61.50;;;;;;5097391;27;20496;-89
2023/04/01 08:27:13;;;;;;;2.40;1.27;;;13.80;61.70;;;;;;5082201;28;20443;-89
2023/04/01 08:29:45;;;;;;;1.53;1.30;;;13.80;62.90;;;;;;5092618;27;20523;-95
2023/04/01 08:32:17;;;;;;;4.57;1.30;;;13.90;62.30;;;;;;5065402;28;20470;-92
2023/04/01 08:34:49;;;;;;;1.40;1.27;;;14.20;62.00;;;;;;5090053;28;20457;-90
2023/04/01 08:37:31;;;;;;;3.00;0.93;;;14.30;61.70;;;;;;5091923;28;20483;-90
2023/04/01 08:40:06;;;;;;;1.00;0.90;;;14.30;60.50;;;;;;5059091;28;20451;-90
2023/04/01 08:42:56;;;;;;;1.17;1.00;;;14.20;60.90;;;;;;5085047;28;20618;-89
2023/04/01 08:45:38;;;;;;;1.40;1.30;;;14.30;62.30;;;;;;5096377;28;20482;-89
2023/04/01 08:48:32;;;;;;;1.20;1.10;;;14.50;61.80;;;;;;5086082;28;20467;-90
2023/04/01 08:51:28;;;;;;;1.20;1.00;;;14.30;61.80;;;;;;5074866;28;20662;-92
2023/04/01 08:54:10;;;;;;;6.50;1.20;;;14.30;61.60;;;;;;5096583;27;20455;-91
2023/04/01 08:56:47;;;;;;;1.30;1.20;;;14.50;62.90;;;;;;5111684;27;21127;-91
2023/04/01 08:59:33;;;;;;;1.10;1.00;;;14.70;62.60;;;;;;5061872;28;20478;-91
2023/04/01 09:02:34;;;;;;;1.40;1.30;;;14.80;62.30;;;;;;5086465;27;20457;-90
2023/04/01 09:05:33;;;;;;;2.03;1.80;;;14.90;62.20;;;;;;5064609;28;20543;-91
2023/04/01 09:08:14;;;;;;;1.20;1.10;;;14.90;61.60;;;;;;5090309;27;20482;-93
2023/04/01 09:10:58;;;;;;;1.00;0.90;;;14.80;60.80;;;;;;5064015;28;20528;-91
2023/04/01 09:14:11;;;;;;;1.10;0.83;;;14.40;61.70;;;;;;5074692;28;20455;-89
2023/04/01 09:17:25;;;;;;;1.00;0.90;;;14.50;62.40;;;;;;5102571;27;20525;-90
2023/04/01 09:20:14;;;;;;;0.90;0.80;;;14.60;62.00;;;;;;5037307;27;20451;-89
2023/04/01 09:22:52;;;;;;;0.93;0.83;;;14.60;61.40;;;;;;5060474;28;21091;-92
2023/04/01 09:25:33;;;;;;;1.00;0.90;;;14.80;63.50;;;;;;5064604;28;20458;-88
2023/04/01 09:28:10;;;;;;;3.60;1.10;;;14.70;61.30;;;;;;5069046;28;20461;-92
2023/04/01 09:31:05;;;;;;;1.50;1.40;;;14.70;62.20;;;;;;5062302;28;20494;-88
2023/04/01 09:34:00;;;;;;;1.63;0.90;;;14.80;62.50;;;;;;5067712;28;20451;-89
2023/04/01 09:36:46;;;;;;;1.00;0.90;;;14.60;60.90;;;;;;5062749;28;20448;-88
2023/04/01 09:39:31;;;;;;;1.40;0.80;;;14.50;63.40;;;;;;5060556;28;20454;-88
2023/04/01 09:42:30;;;;;;;1.20;1.10;;;14.50;62.40;;;;;;5086885;27;20467;-88
2023/04/01 09:45:18;;;;;;;1.00;0.90;;;14.50;64.30;;;;;;5075926;28;20460;-89
2023/04/01 09:48:03;;;;;;;1.10;0.80;;;14.40;63.40;;;;;;5064932;27;20479;-89
2023/04/01 09:50:40;;;;;;;1.17;0.80;;;14.50;63.20;;;;;;5077677;28;20458;-89
2023/04/01 09:53:21;;;;;;;1.80;0.90;;;14.60;63.60;;;;;;5109863;28;20535;-88
2023/04/01 09:56:23;;;;;;;1.30;1.20;;;14.80;64.00;;;;;;5091255;28;20448;-90
2023/04/01 09:59:09;;;;;;;2.97;0.87;;;14.70;63.50;;;;;;5063797;28;20460;-94
2023/04/01 10:02:50;;;;;;;1.90;1.30;;;15.10;63.60;;;;;;5034450;28;20596;-95
2023/04/01 10:05:58;;;;;;;1.57;0.80;;;15.20;64.10;;;;;;5073393;28;20482;-93
2023/04/01 10:09:07;;;;;;;0.83;0.70;;;15.50;62.10;;;;;;5102549;28;20489;-93
2023/04/01 10:12:03;;;;;;;1.10;1.00;;;15.20;61.50;;;;;;5113363;28;20431;-93
2023/04/01 10:15:05;;;;;;;1.80;1.30;;;15.30;63.50;;;;;;5101461;28;20457;-94
2023/04/01 10:18:11;;;;;;;1.80;1.70;;;15.30;63.10;;;;;;5077617;28;20452;-94
2023/04/01 10:21:08;;;;;;;0.80;0.70;;;15.40;62.50;;;;;;5088449;28;20547;-90
2023/04/01 10:23:53;;;;;;;1.87;0.97;;;15.20;61.40;;;;;;5081801;28;20466;-91
2023/04/01 10:26:47;;;;;;;3.33;1.00;;;15.10;62.60;;;;;;5078149;28;20470;-92
2023/04/01 10:30:05;;;;;;;1.17;0.73;;;15.00;63.30;;;;;;5074270;28;20584;-90
2023/04/01 10:33:00;;;;;;;1.37;0.90;;;14.90;64.10;;;;;;5087540;28;20956;-90
2023/04/01 10:36:05;;;;;;;1.50;0.97;;;14.70;65.70;;;;;;5076066;28;20447;-90
2023/04/01 10:38:54;;;;;;;1.23;0.70;;;14.80;64.60;;;;;;5082925;28;20547;-90
2023/04/01 10:41:45;;;;;;;3.27;0.80;;;15.00;64.80;;;;;;5057823;28;20482;-94
2023/04/01 10:45:03;;;;;;;3.27;0.90;;;15.20;65.80;;;;;;5067962;28;20692;-90
2023/04/01 10:48:08;;;;;;;1.00;0.90;;;15.60;63.90;;;;;;5076339;28;20842;-93
2023/04/01 10:51:10;;;;;;;0.90;0.87;;;15.30;63.00;;;;;;5073997;28;20474;-92
2023/04/01 10:53:43;;;;;;;2.50;0.90;;;15.30;63.90;;;;;;5068070;28;20479;-90
2023/04/01 10:56:40;;;;;;;1.07;0.90;;;15.30;64.40;;;;;;5081708;28;20759;-89
2023/04/01 11:00:05;;;;;;;0.80;0.80;;;15.50;63.90;;;;;;5071584;28;20463;-89
2023/04/01 11:03:25;;;;;;;0.90;0.83;;;15.50;63.80;;;;;;5075133;28;20549;-89
2023/04/01 11:06:42;;;;;;;6.53;5.90;;;15.50;63.90;;;;;;5064236;28;20503;-90
2023/04/01 11:10:04;;;;;;;1.40;1.30;;;15.50;63.80;;;;;;5089052;27;20457;-89
2023/04/01 11:13:03;;;;;;;0.80;0.70;;;15.40;64.20;;;;;;5071213;28;20450;-90
2023/04/01 11:15:59;;;;;;;2.03;1.93;;;15.40;65.00;;;;;;5085494;28;20455;-90
2023/04/01 11:19:08;;;;;;;1.73;0.90;;;15.60;65.30;;;;;;5051990;28;20468;-90
2023/04/01 11:22:00;;;;;;;0.97;0.97;;;15.60;65.30;;;;;;5057961;28;20450;-89
2023/04/01 11:25:10;;;;;;;2.10;1.20;;;15.90;64.70;;;;;;5060016;28;20443;-89
2023/04/01 11:28:02;;;;;;;1.20;1.10;;;15.90;63.60;;;;;;5031671;28;20896;-90
2023/04/01 11:30:48;;;;;;;1.60;1.50;;;15.90;64.60;;;;;;5063973;28;20510;-90
2023/04/01 11:33:20;;;;;;;2.50;0.73;;;15.90;64.60;;;;;;5091363;28;20538;-91
2023/04/01 11:36:10;;;;;;;1.73;1.10;;;15.90;64.30;;;;;;5057392;28;20838;-93
2023/04/01 11:38:58;;;;;;;3.07;0.87;;;15.90;64.60;;;;;;5057861;28;20478;-89
2023/04/01 11:41:50;;;;;;;1.77;1.30;;;15.90;65.00;;;;;;5098602;28;20444;-89
2023/04/01 11:44:45;;;;;;;0.80;0.60;;;15.90;64.50;;;;;;5075945;28;20808;-89
2023/04/01 11:47:45;;;;;;;1.33;1.23;;;16.00;64.90;;;;;;5081041;28;20491;-89
2023/04/01 11:50:22;;;;;;;0.80;0.60;;;16.20;65.00;;;;;;5049832;28;20450;-89
2023/04/01 11:53:03;;;;;;;2.90;1.80;;;16.10;63.40;;;;;;5080784;28;20861;-89
2023/04/01 11:55:40;;;;;;;1.13;1.00;;;16.00;64.50;;;;;;5055821;28;20447;-91
2023/04/01 11:58:36;;;;;;;1.73;0.80;;;16.00;64.80;;;;;;5084811;28;20494;-90
2023/04/01 12:01:26;;;;;;;1.30;1.20;;;16.00;64.60;;;;;;5074034;28;20510;-88
2023/04/01 12:04:25;;;;;;;0.80;0.70;;;16.00;65.00;;;;;;5075722;28;20443;-89
2023/04/01 12:07:02;;;;;;;1.00;0.90;;;15.90;63.60;;;;;;5095785;28;20472;-90
2023/04/01 12:09:41;;;;;;;1.87;1.37;;;15.60;64.10;;;;;;5058839;28;20507;-89
2023/04/01 12:12:18;;;;;;;2.00;1.10;;;15.80;65.30;;;;;;5089065;28;20530;-89
2023/04/01 12:14:55;;;;;;;0.90;0.80;;;15.90;66.30;;;;;;5085265;28;20467;-88
2023/04/01 12:17:33;;;;;;;0.80;0.70;;;16.10;66.20;;;;;;5052074;28;20485;-92
2023/04/01 12:20:13;;;;;;;0.90;0.70;;;16.10;65.50;;;;;;5054018;28;20948;-89
2023/04/01 12:22:51;;;;;;;2.07;0.80;;;16.20;64.30;;;;;;5085360;28;20546;-89
2023/04/01 12:25:33;;;;;;;1.70;1.40;;;16.20;65.10;;;;;;5082556;28;20470;-90
2023/04/01 12:28:09;;;;;;;2.37;1.40;;;16.30;65.20;;;;;;5062836;28;20459;-89
2023/04/01 12:30:50;;;;;;;1.90;1.47;;;16.00;64.70;;;;;;5066468;28;20466;-89
2023/04/01 12:33:46;;;;;;;1.43;1.20;;;16.10;65.30;;;;;;5072143;28;20464;-89
2023/04/01 12:36:23;;;;;;;2.17;1.47;;;16.20;65.40;;;;;;5055990;27;20526;-89
2023/04/01 12:39:09;;;;;;;2.10;1.20;;;16.00;65.80;;;;;;5085176;28;20572;-92
2023/04/01 12:41:47;;;;;;;0.90;0.70;;;16.00;65.60;;;;;;5091255;28;20448;-89
2023/04/01 12:44:44;;;;;;;1.00;0.90;;;15.90;64.90;;;;;;5114429;27;20447;-90
2023/04/01 12:47:28;;;;;;;2.30;1.00;;;15.70;65.10;;;;;;5096844;28;20470;-89
2023/04/01 12:50:14;;;;;;;1.00;0.90;;;15.50;66.50;;;;;;5065286;28;20439;-89
2023/04/01 12:52:53;;;;;;;1.20;1.10;;;15.60;67.00;;;;;;5074171;28;20443;-89
2023/04/01 12:55:38;;;;;;;1.97;1.40;;;15.80;67.20;;;;;;5069391;28;20447;-89
2023/04/01 12:58:39;;;;;;;1.73;1.00;;;15.70;65.80;;;;;;5071119;27;20489;-89
2023/04/01 13:01:19;;;;;;;1.53;0.80;;;15.80;65.30;;;;;;5056289;27;20478;-88
2023/04/01 13:04:21;;;;;;;4.00;1.97;;;15.90;65.60;;;;;;5061224;28;20438;-90
2023/04/01 13:07:11;;;;;;;2.00;1.60;;;16.00;65.80;;;;;;5098060;27;20466;-89
2023/04/01 13:09:50;;;;;;;1.10;1.00;;;15.80;66.10;;;;;;5098599;27;21026;-90
2023/04/01 13:12:36;;;;;;;2.33;1.40;;;15.80;66.00;;;;;;5073607;28;20462;-90
2023/04/01 13:15:27;;;;;;;1.30;1.20;;;15.90;66.30;;;;;;5079938;28;20803;-89
2023/04/01 13:18:02;;;;;;;0.90;0.70;;;15.90;65.90;;;;;;5086840;28;20463;-87
2023/04/01 13:20:42;;;;;;;0.93;0.63;;;15.80;65.00;;;;;;5070678;28;20446;-89
2023/04/01 13:23:21;;;;;;;0.80;0.80;;;15.60;67.20;;;;;;5081469;28;20451;-89
2023/04/01 13:25:55;;;;;;;0.80;0.70;;;15.90;65.70;;;;;;5081144;28;20431;-91
2023/04/01 13:28:26;;;;;;;1.80;1.27;;;16.00;66.40;;;;;;5085708;27;21274;-87
2023/04/01 13:31:01;;;;;;;1.00;0.90;;;15.90;66.20;;;;;;5073048;28;20450;-91
2023/04/01 13:33:36;;;;;;;1.20;0.83;;;15.80;66.50;;;;;;5064361;28;20459;-90
2023/04/01 13:36:17;;;;;;;1.00;0.90;;;15.80;66.90;;;;;;5103732;27;20446;-90
2023/04/01 13:39:02;;;;;;;2.00;0.70;;;15.90;67.30;;;;;;5079911;28;20463;-89
2023/04/01 13:41:47;;;;;;;2.00;0.70;;;15.90;65.60;;;;;;5057559;28;20542;-89
2023/04/01 13:44:20;;;;;;;1.13;0.70;;;15.90;66.40;;;;;;5062096;27;20991;-90
2023/04/01 13:47:13;;;;;;;0.80;0.73;;;15.80;65.70;;;;;;5064144;28;20479;-89
2023/04/01 13:50:01;;;;;;;0.90;0.80;;;15.80;66.40;;;;;;5067519;28;20462;-89